Estación Meteorológica Peña el Pijo (Robertgarden) [ 10/16/18 03:52:43 CEST ]

Fecha Hora Presion(HPa) Temp (°C) Humedad % Rocio (°C) Viento ( m/s) Direccion Lluvia 1Hora(mm) Lluvia 24H(mm) LLuvia Total(mm)
2018-Feb-20 01:01:49 1005.900 2.2 77 -1.4         82.36
2018-Feb-20 02:03:13 1006.100 1.3 78 -2.2         82.36
2018-Feb-20 03:01:54 1005.800 1.2 80 -1.9         82.36
2018-Feb-20 04:01:56 1005.600 1.3 81 -1.6         82.36
2018-Feb-20 05:01:38 1005.400 1.1 82 -1.7         82.36
2018-Feb-20 06:01:44 1005.300 0.3 82 -2.4         82.36
2018-Feb-20 07:01:58 1005.100 0.2 83 -2.3         82.36
2018-Feb-20 08:01:51 1005.200 -0.1 84 -2.5         82.36
2018-Feb-20 09:01:35 1005.800 1.5 85 -0.8         82.36
2018-Feb-20 10:01:53 1005.400 5.8 84 3.3         82.36
2018-Feb-20 11:01:47 1005.100 9.6 71 4.6         82.36
2018-Feb-20 12:01:57 1004.900 11.6 63 4.8         82.36
2018-Feb-20 13:01:51 1004.500 12.1 58 4.1         82.36
2018-Feb-20 14:02:13 1004.200 12.1 55 3.3         82.36
2018-Feb-20 15:01:46 1003.400 13.1 50 2.9         82.36
2018-Feb-20 16:01:53 1003.000 13.6 48 2.8         82.36
2018-Feb-20 17:01:44 1002.900 12.4 52 2.8         82.36
2018-Feb-20 18:01:42 1002.800 10.9 54 1.9         82.36
2018-Feb-20 19:01:47 1002.800 10.1 57 1.9         82.36
2018-Feb-20 20:01:50 1002.800 9.5 58 1.6         82.36
2018-Feb-20 21:01:47 1002.800 8.7 58 0.9         82.36
2018-Feb-20 22:01:47 1003.100 6.8 64 0.4         82.36
2018-Feb-20 23:01:56 1002.700 4.9 67 -0.7         82.36

Temperatura Máxima:13°    Temperatura Mínima:
Presión Máxima:1006.100 Hpa    Presión Mínima:1002.700 Hpa


Volver